sensor_id;sensor_type;location;lat;lon;timestamp;P1;durP1;ratioP1;P2;durP2;ratioP2
64609;SDS011;51019;46.090;6.350;2023-12-20T00:01:05;26.20;;;11.60;;
64609;SDS011;51019;46.090;6.350;2023-12-20T00:06:29;19.58;;;7.30;;
64609;SDS011;51019;46.090;6.350;2023-12-20T00:09:04;18.92;;;5.68;;
64609;SDS011;51019;46.090;6.350;2023-12-20T00:11:36;15.98;;;6.10;;
64609;SDS011;51019;46.090;6.350;2023-12-20T00:14:11;15.70;;;6.95;;
64609;SDS011;51019;46.090;6.350;2023-12-20T00:16:39;15.23;;;7.55;;
64609;SDS011;51019;46.090;6.350;2023-12-20T00:22:28;15.48;;;5.97;;
64609;SDS011;51019;46.090;6.350;2023-12-20T00:25:21;14.63;;;5.35;;
64609;SDS011;51019;46.090;6.350;2023-12-20T00:27:54;16.02;;;6.18;;
64609;SDS011;51019;46.090;6.350;2023-12-20T00:30:22;17.83;;;6.90;;
64609;SDS011;51019;46.090;6.350;2023-12-20T00:33:03;15.57;;;5.78;;
64609;SDS011;51019;46.090;6.350;2023-12-20T00:35:38;17.30;;;6.90;;
64609;SDS011;51019;46.090;6.350;2023-12-20T00:38:08;17.38;;;8.38;;
64609;SDS011;51019;46.090;6.350;2023-12-20T00:40:41;15.10;;;5.70;;
64609;SDS011;51019;46.090;6.350;2023-12-20T00:43:11;15.43;;;6.00;;
64609;SDS011;51019;46.090;6.350;2023-12-20T00:45:41;15.38;;;5.13;;
64609;SDS011;51019;46.090;6.350;2023-12-20T00:48:18;14.18;;;5.72;;
64609;SDS011;51019;46.090;6.350;2023-12-20T00:50:46;17.73;;;8.32;;
64609;SDS011;51019;46.090;6.350;2023-12-20T00:53:18;16.23;;;6.97;;
64609;SDS011;51019;46.090;6.350;2023-12-20T00:55:48;19.33;;;7.27;;
64609;SDS011;51019;46.090;6.350;2023-12-20T00:58:23;18.45;;;7.70;;
64609;SDS011;51019;46.090;6.350;2023-12-20T01:01:07;20.85;;;7.97;;
64609;SDS011;51019;46.090;6.350;2023-12-20T01:03:36;20.08;;;8.85;;
64609;SDS011;51019;46.090;6.350;2023-12-20T01:06:10;23.25;;;10.02;;
64609;SDS011;51019;46.090;6.350;2023-12-20T01:11:25;19.83;;;8.38;;
64609;SDS011;51019;46.090;6.350;2023-12-20T01:13:59;19.40;;;8.57;;
64609;SDS011;51019;46.090;6.350;2023-12-20T01:16:35;24.60;;;14.45;;
64609;SDS011;51019;46.090;6.350;2023-12-20T01:19:06;21.30;;;9.43;;
64609;SDS011;51019;46.090;6.350;2023-12-20T01:21:36;22.10;;;8.75;;
64609;SDS011;51019;46.090;6.350;2023-12-20T01:24:08;17.90;;;6.82;;
64609;SDS011;51019;46.090;6.350;2023-12-20T01:26:39;26.25;;;10.15;;
64609;SDS011;51019;46.090;6.350;2023-12-20T01:29:12;25.27;;;9.57;;
64609;SDS011;51019;46.090;6.350;2023-12-20T01:31:49;22.77;;;14.10;;
64609;SDS011;51019;46.090;6.350;2023-12-20T01:34:22;26.85;;;10.30;;
64609;SDS011;51019;46.090;6.350;2023-12-20T01:36:49;22.15;;;8.85;;
64609;SDS011;51019;46.090;6.350;2023-12-20T01:39:30;19.83;;;8.75;;
64609;SDS011;51019;46.090;6.350;2023-12-20T01:42:08;24.20;;;10.20;;
64609;SDS011;51019;46.090;6.350;2023-12-20T01:44:40;20.60;;;9.15;;
64609;SDS011;51019;46.090;6.350;2023-12-20T01:47:17;25.30;;;10.55;;
64609;SDS011;51019;46.090;6.350;2023-12-20T01:50:03;22.10;;;10.20;;
64609;SDS011;51019;46.090;6.350;2023-12-20T01:52:40;18.58;;;8.75;;
64609;SDS011;51019;46.090;6.350;2023-12-20T01:55:18;23.70;;;10.70;;
64609;SDS011;51019;46.090;6.350;2023-12-20T01:57:58;28.95;;;11.02;;
64609;SDS011;51019;46.090;6.350;2023-12-20T02:00:36;22.63;;;10.75;;
64609;SDS011;51019;46.090;6.350;2023-12-20T02:03:11;22.27;;;10.43;;
64609;SDS011;51019;46.090;6.350;2023-12-20T02:05:41;25.52;;;11.48;;
64609;SDS011;51019;46.090;6.350;2023-12-20T02:08:18;29.17;;;11.90;;
64609;SDS011;51019;46.090;6.350;2023-12-20T02:11:06;21.92;;;10.18;;
64609;SDS011;51019;46.090;6.350;2023-12-20T02:13:38;27.55;;;12.00;;
64609;SDS011;51019;46.090;6.350;2023-12-20T02:16:14;26.58;;;16.55;;
64609;SDS011;51019;46.090;6.350;2023-12-20T02:18:44;27.30;;;10.50;;
64609;SDS011;51019;46.090;6.350;2023-12-20T02:21:16;28.85;;;11.85;;
64609;SDS011;51019;46.090;6.350;2023-12-20T02:24:03;26.33;;;12.05;;
64609;SDS011;51019;46.090;6.350;2023-12-20T02:26:33;26.50;;;11.60;;
64609;SDS011;51019;46.090;6.350;2023-12-20T02:29:06;24.33;;;11.02;;
64609;SDS011;51019;46.090;6.350;2023-12-20T02:31:41;22.10;;;11.05;;
64609;SDS011;51019;46.090;6.350;2023-12-20T02:34:12;22.45;;;9.50;;
64609;SDS011;51019;46.090;6.350;2023-12-20T02:36:42;25.08;;;10.63;;
64609;SDS011;51019;46.090;6.350;2023-12-20T02:39:17;23.25;;;10.50;;
64609;SDS011;51019;46.090;6.350;2023-12-20T02:41:54;28.75;;;17.80;;
64609;SDS011;51019;46.090;6.350;2023-12-20T02:44:30;26.08;;;10.23;;
64609;SDS011;51019;46.090;6.350;2023-12-20T02:47:01;24.60;;;10.57;;
64609;SDS011;51019;46.090;6.350;2023-12-20T02:49:32;25.23;;;10.65;;
64609;SDS011;51019;46.090;6.350;2023-12-20T02:52:00;28.30;;;16.95;;
64609;SDS011;51019;46.090;6.350;2023-12-20T02:54:30;23.10;;;11.85;;
64609;SDS011;51019;46.090;6.350;2023-12-20T02:56:57;27.73;;;13.20;;
64609;SDS011;51019;46.090;6.350;2023-12-20T02:59:30;28.88;;;14.02;;
64609;SDS011;51019;46.090;6.350;2023-12-20T03:01:58;26.40;;;11.73;;
64609;SDS011;51019;46.090;6.350;2023-12-20T03:04:29;25.55;;;13.07;;
64609;SDS011;51019;46.090;6.350;2023-12-20T03:06:58;23.48;;;11.93;;
64609;SDS011;51019;46.090;6.350;2023-12-20T03:09:25;28.75;;;16.55;;
64609;SDS011;51019;46.090;6.350;2023-12-20T03:11:56;26.73;;;10.65;;
64609;SDS011;51019;46.090;6.350;2023-12-20T03:14:24;24.40;;;12.13;;
64609;SDS011;51019;46.090;6.350;2023-12-20T03:16:52;25.15;;;12.98;;
64609;SDS011;51019;46.090;6.350;2023-12-20T03:19:20;26.45;;;11.73;;
64609;SDS011;51019;46.090;6.350;2023-12-20T03:21:48;24.50;;;11.85;;
64609;SDS011;51019;46.090;6.350;2023-12-20T03:24:15;23.70;;;12.60;;
64609;SDS011;51019;46.090;6.350;2023-12-20T03:26:42;24.55;;;12.25;;
64609;SDS011;51019;46.090;6.350;2023-12-20T03:29:12;29.63;;;13.23;;
64609;SDS011;51019;46.090;6.350;2023-12-20T03:31:41;22.55;;;11.02;;
64609;SDS011;51019;46.090;6.350;2023-12-20T03:34:09;22.23;;;11.85;;
64609;SDS011;51019;46.090;6.350;2023-12-20T03:36:36;27.25;;;12.52;;
64609;SDS011;51019;46.090;6.350;2023-12-20T03:39:04;23.08;;;12.52;;
64609;SDS011;51019;46.090;6.350;2023-12-20T03:41:32;27.67;;;12.05;;
64609;SDS011;51019;46.090;6.350;2023-12-20T03:43:59;21.08;;;11.30;;
64609;SDS011;51019;46.090;6.350;2023-12-20T03:46:34;25.95;;;12.02;;
64609;SDS011;51019;46.090;6.350;2023-12-20T03:49:04;25.35;;;12.07;;
64609;SDS011;51019;46.090;6.350;2023-12-20T03:51:31;29.25;;;18.08;;
64609;SDS011;51019;46.090;6.350;2023-12-20T03:53:59;23.83;;;11.07;;
64609;SDS011;51019;46.090;6.350;2023-12-20T03:56:26;23.00;;;11.13;;
64609;SDS011;51019;46.090;6.350;2023-12-20T03:58:54;24.58;;;12.00;;
64609;SDS011;51019;46.090;6.350;2023-12-20T04:01:21;21.40;;;10.15;;
64609;SDS011;51019;46.090;6.350;2023-12-20T04:03:50;23.45;;;11.55;;
64609;SDS011;51019;46.090;6.350;2023-12-20T04:06:18;27.50;;;12.98;;
64609;SDS011;51019;46.090;6.350;2023-12-20T04:08:45;29.80;;;19.15;;
64609;SDS011;51019;46.090;6.350;2023-12-20T04:11:13;25.35;;;12.13;;
64609;SDS011;51019;46.090;6.350;2023-12-20T04:13:40;30.13;;;13.15;;
64609;SDS011;51019;46.090;6.350;2023-12-20T04:16:07;26.88;;;11.82;;
64609;SDS011;51019;46.090;6.350;2023-12-20T04:18:34;29.27;;;12.80;;
64609;SDS011;51019;46.090;6.350;2023-12-20T04:21:03;23.42;;;12.27;;
64609;SDS011;51019;46.090;6.350;2023-12-20T04:23:32;28.17;;;13.75;;
64609;SDS011;51019;46.090;6.350;2023-12-20T04:25:59;28.10;;;12.25;;
64609;SDS011;51019;46.090;6.350;2023-12-20T04:28:26;26.27;;;13.30;;
64609;SDS011;51019;46.090;6.350;2023-12-20T04:30:55;25.98;;;13.20;;
64609;SDS011;51019;46.090;6.350;2023-12-20T04:33:22;29.95;;;12.23;;
64609;SDS011;51019;46.090;6.350;2023-12-20T04:35:49;28.02;;;13.30;;
64609;SDS011;51019;46.090;6.350;2023-12-20T04:38:18;28.40;;;13.73;;
64609;SDS011;51019;46.090;6.350;2023-12-20T04:40:46;28.38;;;13.35;;
64609;SDS011;51019;46.090;6.350;2023-12-20T04:43:13;23.52;;;12.80;;
64609;SDS011;51019;46.090;6.350;2023-12-20T04:45:41;27.42;;;13.63;;
64609;SDS011;51019;46.090;6.350;2023-12-20T04:48:08;25.40;;;14.10;;
64609;SDS011;51019;46.090;6.350;2023-12-20T04:50:35;30.20;;;19.17;;
64609;SDS011;51019;46.090;6.350;2023-12-20T04:53:03;28.38;;;13.98;;
64609;SDS011;51019;46.090;6.350;2023-12-20T04:55:32;26.67;;;12.80;;
64609;SDS011;51019;46.090;6.350;2023-12-20T04:57:59;26.83;;;14.13;;
64609;SDS011;51019;46.090;6.350;2023-12-20T05:00:26;28.80;;;12.63;;
64609;SDS011;51019;46.090;6.350;2023-12-20T05:02:53;22.25;;;11.85;;
64609;SDS011;51019;46.090;6.350;2023-12-20T05:05:21;24.80;;;11.90;;
64609;SDS011;51019;46.090;6.350;2023-12-20T05:07:48;23.92;;;12.93;;
64609;SDS011;51019;46.090;6.350;2023-12-20T05:10:15;27.02;;;12.70;;
64609;SDS011;51019;46.090;6.350;2023-12-20T05:12:44;28.75;;;14.77;;
64609;SDS011;51019;46.090;6.350;2023-12-20T05:15:11;28.23;;;13.38;;
64609;SDS011;51019;46.090;6.350;2023-12-20T05:17:39;28.98;;;12.95;;
64609;SDS011;51019;46.090;6.350;2023-12-20T05:20:07;30.17;;;14.13;;
64609;SDS011;51019;46.090;6.350;2023-12-20T05:22:37;26.30;;;12.95;;
64609;SDS011;51019;46.090;6.350;2023-12-20T05:25:07;26.50;;;13.15;;
64609;SDS011;51019;46.090;6.350;2023-12-20T05:27:45;29.17;;;12.27;;
64609;SDS011;51019;46.090;6.350;2023-12-20T05:30:21;28.08;;;12.43;;
64609;SDS011;51019;46.090;6.350;2023-12-20T05:32:49;24.67;;;11.60;;
64609;SDS011;51019;46.090;6.350;2023-12-20T05:35:18;28.17;;;12.50;;
64609;SDS011;51019;46.090;6.350;2023-12-20T05:37:49;22.50;;;9.03;;
64609;SDS011;51019;46.090;6.350;2023-12-20T05:40:18;23.98;;;12.07;;
64609;SDS011;51019;46.090;6.350;2023-12-20T05:42:48;26.45;;;12.15;;
64609;SDS011;51019;46.090;6.350;2023-12-20T05:45:33;24.40;;;11.27;;
64609;SDS011;51019;46.090;6.350;2023-12-20T05:48:06;27.13;;;11.20;;
64609;SDS011;51019;46.090;6.350;2023-12-20T05:50:33;24.55;;;11.63;;
64609;SDS011;51019;46.090;6.350;2023-12-20T05:53:35;26.95;;;11.45;;
64609;SDS011;51019;46.090;6.350;2023-12-20T05:55:57;24.95;;;10.35;;
64609;SDS011;51019;46.090;6.350;2023-12-20T05:58:27;26.90;;;11.38;;
64609;SDS011;51019;46.090;6.350;2023-12-20T06:00:54;27.58;;;11.80;;
64609;SDS011;51019;46.090;6.350;2023-12-20T06:03:22;29.38;;;13.18;;
64609;SDS011;51019;46.090;6.350;2023-12-20T06:05:49;28.85;;;13.52;;
64609;SDS011;51019;46.090;6.350;2023-12-20T06:08:16;30.00;;;13.50;;
64609;SDS011;51019;46.090;6.350;2023-12-20T06:10:43;30.17;;;13.85;;
64609;SDS011;51019;46.090;6.350;2023-12-20T06:13:11;23.25;;;10.57;;
64609;SDS011;51019;46.090;6.350;2023-12-20T06:15:41;24.77;;;11.63;;
64609;SDS011;51019;46.090;6.350;2023-12-20T06:18:08;26.23;;;12.93;;
64609;SDS011;51019;46.090;6.350;2023-12-20T06:20:35;26.75;;;12.95;;
64609;SDS011;51019;46.090;6.350;2023-12-20T06:23:03;33.25;;;20.05;;
64609;SDS011;51019;46.090;6.350;2023-12-20T06:25:30;26.73;;;12.43;;
64609;SDS011;51019;46.090;6.350;2023-12-20T06:27:58;29.55;;;18.92;;
64609;SDS011;51019;46.090;6.350;2023-12-20T06:30:25;26.15;;;11.27;;
64609;SDS011;51019;46.090;6.350;2023-12-20T06:32:54;24.02;;;12.60;;
64609;SDS011;51019;46.090;6.350;2023-12-20T06:35:25;21.03;;;9.70;;
64609;SDS011;51019;46.090;6.350;2023-12-20T06:37:52;25.67;;;11.85;;
64609;SDS011;51019;46.090;6.350;2023-12-20T06:40:21;28.58;;;12.93;;
64609;SDS011;51019;46.090;6.350;2023-12-20T06:42:48;25.13;;;13.25;;
64609;SDS011;51019;46.090;6.350;2023-12-20T06:45:19;24.15;;;11.07;;
64609;SDS011;51019;46.090;6.350;2023-12-20T06:47:47;28.48;;;13.82;;
64609;SDS011;51019;46.090;6.350;2023-12-20T06:50:16;32.90;;;15.50;;
64609;SDS011;51019;46.090;6.350;2023-12-20T06:52:44;29.83;;;15.02;;
64609;SDS011;51019;46.090;6.350;2023-12-20T06:55:12;30.33;;;14.93;;
64609;SDS011;51019;46.090;6.350;2023-12-20T06:57:40;26.05;;;13.15;;
64609;SDS011;51019;46.090;6.350;2023-12-20T07:00:11;27.83;;;12.45;;
64609;SDS011;51019;46.090;6.350;2023-12-20T07:02:41;26.55;;;10.10;;
64609;SDS011;51019;46.090;6.350;2023-12-20T07:05:10;27.63;;;13.20;;
64609;SDS011;51019;46.090;6.350;2023-12-20T07:07:46;29.20;;;14.73;;
64609;SDS011;51019;46.090;6.350;2023-12-20T07:10:17;25.88;;;11.93;;
64609;SDS011;51019;46.090;6.350;2023-12-20T07:12:46;26.67;;;11.90;;
64609;SDS011;51019;46.090;6.350;2023-12-20T07:15:14;28.10;;;12.20;;
64609;SDS011;51019;46.090;6.350;2023-12-20T07:17:42;24.73;;;11.65;;
64609;SDS011;51019;46.090;6.350;2023-12-20T07:20:09;25.73;;;12.43;;
64609;SDS011;51019;46.090;6.350;2023-12-20T07:22:38;27.08;;;11.90;;
64609;SDS011;51019;46.090;6.350;2023-12-20T07:25:09;30.08;;;13.98;;
64609;SDS011;51019;46.090;6.350;2023-12-20T07:27:37;28.15;;;12.40;;
64609;SDS011;51019;46.090;6.350;2023-12-20T07:30:05;25.05;;;12.75;;
64609;SDS011;51019;46.090;6.350;2023-12-20T07:32:33;25.75;;;11.75;;
64609;SDS011;51019;46.090;6.350;2023-12-20T07:35:00;24.33;;;12.15;;
64609;SDS011;51019;46.090;6.350;2023-12-20T07:37:28;27.35;;;13.85;;
64609;SDS011;51019;46.090;6.350;2023-12-20T07:39:57;26.85;;;12.85;;
64609;SDS011;51019;46.090;6.350;2023-12-20T07:42:26;23.13;;;11.10;;
64609;SDS011;51019;46.090;6.350;2023-12-20T07:44:53;29.88;;;12.65;;
64609;SDS011;51019;46.090;6.350;2023-12-20T07:47:21;26.15;;;12.18;;
64609;SDS011;51019;46.090;6.350;2023-12-20T07:49:48;27.20;;;13.23;;
64609;SDS011;51019;46.090;6.350;2023-12-20T07:52:16;26.70;;;12.75;;
64609;SDS011;51019;46.090;6.350;2023-12-20T07:54:44;27.65;;;14.02;;
64609;SDS011;51019;46.090;6.350;2023-12-20T07:57:11;33.63;;;19.83;;
64609;SDS011;51019;46.090;6.350;2023-12-20T07:59:40;25.23;;;12.73;;
64609;SDS011;51019;46.090;6.350;2023-12-20T08:02:09;29.13;;;14.48;;
64609;SDS011;51019;46.090;6.350;2023-12-20T08:04:36;29.88;;;14.35;;
64609;SDS011;51019;46.090;6.350;2023-12-20T08:07:04;32.00;;;14.73;;
64609;SDS011;51019;46.090;6.350;2023-12-20T08:09:33;30.58;;;13.65;;
64609;SDS011;51019;46.090;6.350;2023-12-20T08:12:02;33.58;;;14.50;;
64609;SDS011;51019;46.090;6.350;2023-12-20T08:14:29;31.38;;;15.25;;
64609;SDS011;51019;46.090;6.350;2023-12-20T08:16:59;30.90;;;15.13;;
64609;SDS011;51019;46.090;6.350;2023-12-20T08:19:27;28.52;;;16.38;;
64609;SDS011;51019;46.090;6.350;2023-12-20T08:21:54;30.05;;;13.73;;
64609;SDS011;51019;46.090;6.350;2023-12-20T08:24:21;24.40;;;13.50;;
64609;SDS011;51019;46.090;6.350;2023-12-20T08:26:49;27.15;;;13.18;;
64609;SDS011;51019;46.090;6.350;2023-12-20T08:29:16;32.97;;;15.63;;
64609;SDS011;51019;46.090;6.350;2023-12-20T08:31:43;33.10;;;22.95;;
64609;SDS011;51019;46.090;6.350;2023-12-20T08:34:13;24.83;;;13.82;;
64609;SDS011;51019;46.090;6.350;2023-12-20T08:36:41;32.80;;;16.92;;
64609;SDS011;51019;46.090;6.350;2023-12-20T08:39:09;33.58;;;15.65;;
64609;SDS011;51019;46.090;6.350;2023-12-20T08:41:37;34.55;;;17.65;;
64609;SDS011;51019;46.090;6.350;2023-12-20T08:44:04;34.22;;;18.65;;
64609;SDS011;51019;46.090;6.350;2023-12-20T08:46:32;37.70;;;19.27;;
64609;SDS011;51019;46.090;6.350;2023-12-20T08:49:00;32.13;;;17.58;;
64609;SDS011;51019;46.090;6.350;2023-12-20T08:51:29;29.88;;;16.65;;
64609;SDS011;51019;46.090;6.350;2023-12-20T08:53:59;28.90;;;15.23;;
64609;SDS011;51019;46.090;6.350;2023-12-20T08:56:26;33.92;;;17.40;;
64609;SDS011;51019;46.090;6.350;2023-12-20T08:58:53;33.90;;;17.45;;
64609;SDS011;51019;46.090;6.350;2023-12-20T09:01:20;34.85;;;22.00;;
64609;SDS011;51019;46.090;6.350;2023-12-20T09:03:47;36.55;;;15.48;;
64609;SDS011;51019;46.090;6.350;2023-12-20T09:06:15;28.45;;;14.95;;
64609;SDS011;51019;46.090;6.350;2023-12-20T09:08:47;32.90;;;16.55;;
64609;SDS011;51019;46.090;6.350;2023-12-20T09:11:18;31.23;;;20.63;;
64609;SDS011;51019;46.090;6.350;2023-12-20T09:13:45;27.67;;;14.88;;
64609;SDS011;51019;46.090;6.350;2023-12-20T09:16:15;37.88;;;21.60;;
64609;SDS011;51019;46.090;6.350;2023-12-20T09:18:58;37.08;;;24.17;;
64609;SDS011;51019;46.090;6.350;2023-12-20T09:21:26;32.13;;;15.85;;
64609;SDS011;51019;46.090;6.350;2023-12-20T09:24:06;32.30;;;15.35;;
64609;SDS011;51019;46.090;6.350;2023-12-20T09:26:50;35.30;;;20.63;;
64609;SDS011;51019;46.090;6.350;2023-12-20T09:29:21;38.58;;;22.35;;
64609;SDS011;51019;46.090;6.350;2023-12-20T09:31:57;32.85;;;12.93;;
64609;SDS011;51019;46.090;6.350;2023-12-20T09:34:31;32.58;;;15.07;;
64609;SDS011;51019;46.090;6.350;2023-12-20T09:37:03;28.65;;;14.65;;
64609;SDS011;51019;46.090;6.350;2023-12-20T09:42:54;30.17;;;15.35;;
64609;SDS011;51019;46.090;6.350;2023-12-20T09:45:36;36.30;;;15.63;;
64609;SDS011;51019;46.090;6.350;2023-12-20T09:48:34;33.97;;;16.80;;
64609;SDS011;51019;46.090;6.350;2023-12-20T09:51:31;32.28;;;15.23;;
64609;SDS011;51019;46.090;6.350;2023-12-20T09:54:09;30.60;;;15.50;;
64609;SDS011;51019;46.090;6.350;2023-12-20T09:56:52;25.40;;;13.43;;
64609;SDS011;51019;46.090;6.350;2023-12-20T09:59:38;34.03;;;19.25;;
64609;SDS011;51019;46.090;6.350;2023-12-20T10:02:46;28.80;;;12.98;;
64609;SDS011;51019;46.090;6.350;2023-12-20T10:05:44;30.02;;;14.57;;
64609;SDS011;51019;46.090;6.350;2023-12-20T10:08:15;30.02;;;16.42;;
64609;SDS011;51019;46.090;6.350;2023-12-20T10:11:04;32.80;;;18.65;;
64609;SDS011;51019;46.090;6.350;2023-12-20T10:20:01;28.83;;;18.92;;
64609;SDS011;51019;46.090;6.350;2023-12-20T10:22:35;26.67;;;17.98;;
64609;SDS011;51019;46.090;6.350;2023-12-20T10:25:24;32.08;;;19.58;;
64609;SDS011;51019;46.090;6.350;2023-12-20T10:28:09;31.58;;;19.00;;
64609;SDS011;51019;46.090;6.350;2023-12-20T10:30:42;25.65;;;14.27;;
64609;SDS011;51019;46.090;6.350;2023-12-20T10:33:11;29.40;;;14.82;;
64609;SDS011;51019;46.090;6.350;2023-12-20T10:35:49;30.30;;;19.05;;
64609;SDS011;51019;46.090;6.350;2023-12-20T10:38:35;29.35;;;15.52;;
64609;SDS011;51019;46.090;6.350;2023-12-20T10:41:07;27.98;;;17.88;;
64609;SDS011;51019;46.090;6.350;2023-12-20T10:43:42;29.80;;;16.80;;
64609;SDS011;51019;46.090;6.350;2023-12-20T10:46:20;25.55;;;14.20;;
64609;SDS011;51019;46.090;6.350;2023-12-20T10:48:58;28.10;;;14.40;;
64609;SDS011;51019;46.090;6.350;2023-12-20T10:51:33;28.15;;;14.52;;
64609;SDS011;51019;46.090;6.350;2023-12-20T10:54:06;27.60;;;15.43;;
64609;SDS011;51019;46.090;6.350;2023-12-20T10:59:20;26.67;;;11.88;;
64609;SDS011;51019;46.090;6.350;2023-12-20T11:02:19;27.70;;;17.30;;
64609;SDS011;51019;46.090;6.350;2023-12-20T11:04:58;25.50;;;16.15;;
64609;SDS011;51019;46.090;6.350;2023-12-20T11:07:46;24.77;;;16.25;;
64609;SDS011;51019;46.090;6.350;2023-12-20T11:16:12;27.35;;;16.35;;
64609;SDS011;51019;46.090;6.350;2023-12-20T11:23:33;25.17;;;15.57;;
64609;SDS011;51019;46.090;6.350;2023-12-20T11:26:22;29.20;;;16.27;;
64609;SDS011;51019;46.090;6.350;2023-12-20T11:35:30;27.95;;;15.88;;
64609;SDS011;51019;46.090;6.350;2023-12-20T11:38:04;25.35;;;16.80;;
64609;SDS011;51019;46.090;6.350;2023-12-20T11:44:12;23.95;;;12.73;;
64609;SDS011;51019;46.090;6.350;2023-12-20T11:52:51;22.85;;;15.05;;
64609;SDS011;51019;46.090;6.350;2023-12-20T11:55:32;25.17;;;13.05;;
64609;SDS011;51019;46.090;6.350;2023-12-20T11:58:08;21.65;;;13.65;;
64609;SDS011;51019;46.090;6.350;2023-12-20T12:00:44;22.40;;;12.48;;
64609;SDS011;51019;46.090;6.350;2023-12-20T12:03:29;22.52;;;14.18;;
64609;SDS011;51019;46.090;6.350;2023-12-20T12:06:10;21.63;;;11.50;;
64609;SDS011;51019;46.090;6.350;2023-12-20T12:08:45;23.85;;;12.02;;
64609;SDS011;51019;46.090;6.350;2023-12-20T12:11:18;21.13;;;10.88;;
64609;SDS011;51019;46.090;6.350;2023-12-20T12:14:01;22.42;;;14.77;;
64609;SDS011;51019;46.090;6.350;2023-12-20T12:19:19;23.55;;;9.57;;
64609;SDS011;51019;46.090;6.350;2023-12-20T12:22:05;19.25;;;9.40;;
64609;SDS011;51019;46.090;6.350;2023-12-20T12:24:58;21.02;;;9.95;;
64609;SDS011;51019;46.090;6.350;2023-12-20T12:27:53;19.98;;;12.05;;
64609;SDS011;51019;46.090;6.350;2023-12-20T12:30:30;24.63;;;11.40;;
64609;SDS011;51019;46.090;6.350;2023-12-20T12:33:10;21.27;;;10.02;;
64609;SDS011;51019;46.090;6.350;2023-12-20T12:35:42;21.95;;;12.00;;
64609;SDS011;51019;46.090;6.350;2023-12-20T12:38:30;22.60;;;14.80;;
64609;SDS011;51019;46.090;6.350;2023-12-20T12:41:20;24.85;;;14.27;;
64609;SDS011;51019;46.090;6.350;2023-12-20T12:43:50;23.85;;;12.07;;
64609;SDS011;51019;46.090;6.350;2023-12-20T12:46:41;23.00;;;14.38;;
64609;SDS011;51019;46.090;6.350;2023-12-20T12:53:03;24.60;;;15.35;;
64609;SDS011;51019;46.090;6.350;2023-12-20T12:55:48;25.75;;;17.00;;
64609;SDS011;51019;46.090;6.350;2023-12-20T12:58:27;24.85;;;16.05;;
64609;SDS011;51019;46.090;6.350;2023-12-20T13:01:07;25.33;;;14.88;;
64609;SDS011;51019;46.090;6.350;2023-12-20T13:03:50;22.08;;;11.85;;
64609;SDS011;51019;46.090;6.350;2023-12-20T13:09:26;21.90;;;13.77;;
64609;SDS011;51019;46.090;6.350;2023-12-20T13:11:59;21.90;;;12.07;;
64609;SDS011;51019;46.090;6.350;2023-12-20T13:21:06;22.13;;;12.50;;
64609;SDS011;51019;46.090;6.350;2023-12-20T13:23:47;21.08;;;12.95;;
64609;SDS011;51019;46.090;6.350;2023-12-20T13:29:58;21.02;;;13.15;;
64609;SDS011;51019;46.090;6.350;2023-12-20T13:32:48;20.63;;;10.77;;
64609;SDS011;51019;46.090;6.350;2023-12-20T13:39:15;25.15;;;15.82;;
64609;SDS011;51019;46.090;6.350;2023-12-20T13:41:53;28.63;;;18.05;;
64609;SDS011;51019;46.090;6.350;2023-12-20T13:44:52;27.88;;;16.92;;
64609;SDS011;51019;46.090;6.350;2023-12-20T13:51:30;23.67;;;13.57;;
64609;SDS011;51019;46.090;6.350;2023-12-20T13:53:57;24.73;;;14.10;;
64609;SDS011;51019;46.090;6.350;2023-12-20T13:56:30;21.80;;;12.43;;
64609;SDS011;51019;46.090;6.350;2023-12-20T14:02:17;20.65;;;12.63;;
64609;SDS011;51019;46.090;6.350;2023-12-20T14:04:57;22.00;;;13.23;;
64609;SDS011;51019;46.090;6.350;2023-12-20T14:10:54;23.27;;;14.27;;
64609;SDS011;51019;46.090;6.350;2023-12-20T14:17:19;21.95;;;13.50;;
64609;SDS011;51019;46.090;6.350;2023-12-20T14:23:30;22.52;;;12.23;;
64609;SDS011;51019;46.090;6.350;2023-12-20T14:26:14;27.15;;;14.93;;
64609;SDS011;51019;46.090;6.350;2023-12-20T14:34:07;18.00;;;10.95;;
64609;SDS011;51019;46.090;6.350;2023-12-20T14:35:47;19.48;;;10.90;;
64609;SDS011;51019;46.090;6.350;2023-12-20T14:42:07;18.90;;;10.35;;
64609;SDS011;51019;46.090;6.350;2023-12-20T14:44:57;16.48;;;9.32;;
64609;SDS011;51019;46.090;6.350;2023-12-20T14:48:16;15.52;;;8.52;;
64609;SDS011;51019;46.090;6.350;2023-12-20T14:50:31;14.30;;;6.38;;
64609;SDS011;51019;46.090;6.350;2023-12-20T14:53:51;12.80;;;6.15;;
64609;SDS011;51019;46.090;6.350;2023-12-20T15:06:31;20.58;;;5.97;;
64609;SDS011;51019;46.090;6.350;2023-12-20T15:09:16;43.97;;;17.95;;
64609;SDS011;51019;46.090;6.350;2023-12-20T15:12:22;25.30;;;15.90;;
64609;SDS011;51019;46.090;6.350;2023-12-20T15:15:01;9.18;;;2.53;;
64609;SDS011;51019;46.090;6.350;2023-12-20T15:24:13;7.03;;;1.92;;
64609;SDS011;51019;46.090;6.350;2023-12-20T15:27:12;4.70;;;1.95;;
64609;SDS011;51019;46.090;6.350;2023-12-20T15:29:49;7.03;;;2.00;;
64609;SDS011;51019;46.090;6.350;2023-12-20T15:32:34;7.43;;;2.10;;
64609;SDS011;51019;46.090;6.350;2023-12-20T15:35:24;10.40;;;2.13;;
64609;SDS011;51019;46.090;6.350;2023-12-20T15:38:20;12.52;;;2.75;;
64609;SDS011;51019;46.090;6.350;2023-12-20T15:41:04;6.82;;;2.15;;
64609;SDS011;51019;46.090;6.350;2023-12-20T15:44:20;5.88;;;2.00;;
64609;SDS011;51019;46.090;6.350;2023-12-20T15:47:22;8.43;;;2.22;;
64609;SDS011;51019;46.090;6.350;2023-12-20T15:50:30;5.50;;;1.63;;
64609;SDS011;51019;46.090;6.350;2023-12-20T16:02:53;7.50;;;2.28;;
64609;SDS011;51019;46.090;6.350;2023-12-20T16:12:29;7.22;;;2.00;;
64609;SDS011;51019;46.090;6.350;2023-12-20T16:15:42;4.00;;;1.60;;
64609;SDS011;51019;46.090;6.350;2023-12-20T16:18:43;6.70;;;1.90;;
64609;SDS011;51019;46.090;6.350;2023-12-20T16:37:31;11.55;;;3.25;;
64609;SDS011;51019;46.090;6.350;2023-12-20T16:43:56;11.90;;;4.30;;
64609;SDS011;51019;46.090;6.350;2023-12-20T16:52:26;16.58;;;6.22;;
64609;SDS011;51019;46.090;6.350;2023-12-20T16:58:50;13.50;;;4.88;;
64609;SDS011;51019;46.090;6.350;2023-12-20T17:01:35;13.77;;;3.87;;
64609;SDS011;51019;46.090;6.350;2023-12-20T17:04:34;15.52;;;5.32;;
64609;SDS011;51019;46.090;6.350;2023-12-20T17:07:04;15.77;;;4.05;;
64609;SDS011;51019;46.090;6.350;2023-12-20T17:09:31;14.20;;;4.88;;
64609;SDS011;51019;46.090;6.350;2023-12-20T17:11:58;12.88;;;3.97;;
64609;SDS011;51019;46.090;6.350;2023-12-20T17:14:27;13.68;;;2.78;;
64609;SDS011;51019;46.090;6.350;2023-12-20T17:16:58;12.30;;;4.18;;
64609;SDS011;51019;46.090;6.350;2023-12-20T17:19:25;13.40;;;3.25;;
64609;SDS011;51019;46.090;6.350;2023-12-20T17:21:54;12.32;;;4.50;;
64609;SDS011;51019;46.090;6.350;2023-12-20T17:24:23;10.25;;;3.53;;
64609;SDS011;51019;46.090;6.350;2023-12-20T17:26:51;13.98;;;4.43;;
64609;SDS011;51019;46.090;6.350;2023-12-20T17:29:18;13.32;;;4.05;;
64609;SDS011;51019;46.090;6.350;2023-12-20T17:31:47;13.25;;;4.45;;
64609;SDS011;51019;46.090;6.350;2023-12-20T17:34:14;13.48;;;5.32;;
64609;SDS011;51019;46.090;6.350;2023-12-20T17:36:41;11.88;;;4.22;;
64609;SDS011;51019;46.090;6.350;2023-12-20T17:39:09;12.55;;;4.10;;
64609;SDS011;51019;46.090;6.350;2023-12-20T17:41:36;12.43;;;4.57;;
64609;SDS011;51019;46.090;6.350;2023-12-20T17:44:04;11.95;;;4.20;;
64609;SDS011;51019;46.090;6.350;2023-12-20T17:46:31;14.10;;;5.70;;